Time;durP1;ratioP1;P1;durP2;ratioP2;P2;SDS_P1;SDS_P2;PMS_P1;PMS_P2;Temp;Humidity;BMP_temperature;BMP_pressure;BME280_temperature;BME280_humidity;BME280_pressure;Samples;Min_cycle;Max_cycle;Signal;HPM_P1;HPM_P2
2022/08/07 00:02:00;;;;;;;2.30;0.40;;;;;;;14.46;65.04;101178.61;106479;1267;25953;-72
2022/08/07 00:04:31;;;;;;;3.20;0.60;;;;;;;14.45;65.31;101182.21;106532;1267;22552;-72
2022/08/07 00:07:02;;;;;;;6.10;0.60;;;;;;;14.45;65.15;101184.23;106487;1267;22564;-73
2022/08/07 00:09:33;;;;;;;4.40;0.50;;;;;;;14.41;64.89;101183.87;106413;1268;22522;-72
2022/08/07 00:12:05;;;;;;;5.90;0.60;;;;;;;14.38;65.06;101183.33;106604;1267;22522;-72
2022/08/07 00:14:36;;;;;;;1.60;0.40;;;;;;;14.37;64.93;101189.31;106484;1267;25425;-71
2022/08/07 00:17:08;;;;;;;5.50;0.70;;;;;;;14.34;65.02;101184.91;106521;1268;25426;-73
2022/08/07 00:19:39;;;;;;;2.40;0.60;;;;;;;14.30;65.29;101190.06;106545;1267;22539;-72
2022/08/07 00:22:10;;;;;;;3.10;0.50;;;;;;;14.30;65.36;101189.75;106519;1267;22560;-72
2022/08/07 00:24:42;;;;;;;3.90;0.60;;;;;;;14.29;64.99;101184.67;106440;1267;22543;-72
2022/08/07 00:27:13;;;;;;;4.90;0.60;;;;;;;14.27;65.31;101186.54;106431;1269;22567;-72
2022/08/07 00:29:44;;;;;;;4.10;0.60;;;;;;;14.25;65.29;101186.00;106537;1267;22680;-72
2022/08/07 00:32:16;;;;;;;2.50;0.50;;;;;;;14.23;65.15;101192.49;106557;1267;25382;-72
2022/08/07 00:34:48;;;;;;;4.80;0.80;;;;;;;14.22;65.41;101190.39;106485;1268;24303;-73
2022/08/07 00:37:20;;;;;;;3.40;0.70;;;;;;;14.21;65.30;101188.31;106440;1269;24216;-72
2022/08/07 00:39:52;;;;;;;3.60;0.60;;;;;;;14.20;65.48;101189.07;106503;1267;24402;-72
2022/08/07 00:42:24;;;;;;;2.90;0.60;;;;;;;14.17;65.24;101185.63;106649;1267;23930;-72
2022/08/07 00:44:55;;;;;;;4.90;0.50;;;;;;;14.13;65.30;101184.23;106478;1268;22656;-73
2022/08/07 00:47:26;;;;;;;4.10;0.70;;;;;;;14.10;65.32;101181.42;106509;1267;22553;-72
2022/08/07 00:49:58;;;;;;;3.50;0.70;;;;;;;14.08;65.47;101179.02;106603;1269;22566;-72
2022/08/07 00:52:29;;;;;;;3.30;0.70;;;;;;;14.07;65.58;101176.35;106604;1271;24274;-72
2022/08/07 00:55:00;;;;;;;4.20;0.90;;;;;;;14.05;65.40;101174.77;106426;1268;22565;-72
2022/08/07 00:57:31;;;;;;;3.30;0.60;;;;;;;14.03;65.51;101172.48;106467;1269;26495;-72
2022/08/07 01:00:04;;;;;;;3.00;0.50;;;;;;;14.00;65.49;101177.60;106436;1271;22541;-72
2022/08/07 01:02:35;;;;;;;3.10;0.70;;;;;;;13.99;65.71;101174.95;106696;1268;24398;-73
2022/08/07 01:05:09;;;;;;;5.20;0.70;;;;;;;13.96;65.51;101172.10;106559;1268;22533;-73
2022/08/07 01:07:41;;;;;;;5.80;0.80;;;;;;;13.94;65.57;101169.82;106610;1270;22541;-73
2022/08/07 01:10:12;;;;;;;3.60;0.70;;;;;;;13.93;65.60;101173.25;106449;1268;22750;-73
2022/08/07 01:12:44;;;;;;;4.80;0.80;;;;;;;13.92;65.62;101173.85;106494;1266;22686;-73
2022/08/07 01:15:15;;;;;;;6.40;1.00;;;;;;;13.90;65.54;101173.91;106530;1268;25857;-73
2022/08/07 01:17:46;;;;;;;4.60;0.70;;;;;;;13.89;65.83;101173.13;106502;1267;25231;-73
2022/08/07 01:20:22;;;;;;;1.60;0.50;;;;;;;13.86;65.61;101178.52;106520;1268;22552;-73
2022/08/07 01:22:53;;;;;;;3.90;0.60;;;;;;;13.81;65.44;101179.31;106576;1268;26492;-73
2022/08/07 01:25:24;;;;;;;4.40;0.60;;;;;;;13.79;65.58;101186.46;106529;1268;22464;-73
2022/08/07 01:27:57;;;;;;;2.90;0.50;;;;;;;13.78;65.48;101184.69;106600;1271;25297;-73
2022/08/07 01:30:29;;;;;;;3.30;0.70;;;;;;;13.75;65.33;101189.89;106699;1267;22583;-72
2022/08/07 01:33:01;;;;;;;6.10;0.60;;;;;;;13.71;65.45;101189.66;106603;1268;24256;-73
2022/08/07 01:35:32;;;;;;;4.70;0.70;;;;;;;13.67;65.47;101191.09;106429;1267;25231;-73
2022/08/07 01:38:04;;;;;;;1.50;0.50;;;;;;;13.62;65.41;101188.52;106512;1269;25360;-73
2022/08/07 01:40:36;;;;;;;1.20;0.40;;;;;;;13.58;65.75;101190.98;106530;1267;22525;-72
2022/08/07 01:43:07;;;;;;;3.30;0.70;;;;;;;13.51;65.86;101196.86;106478;1268;28723;-73
2022/08/07 01:45:38;;;;;;;3.50;0.50;;;;;;;13.44;66.06;101194.82;106515;1268;25212;-73
2022/08/07 01:48:10;;;;;;;5.40;0.60;;;;;;;13.41;65.87;101190.46;106499;1268;22538;-73
2022/08/07 01:50:42;;;;;;;7.10;1.00;;;;;;;13.40;65.90;101186.35;106557;1268;22626;-73
2022/08/07 01:53:15;;;;;;;6.10;0.60;;;;;;;13.41;65.68;101190.71;106552;1268;22726;-73
2022/08/07 01:55:50;;;;;;;3.10;0.80;;;;;;;13.35;65.78;101192.73;106513;1268;22556;-73
2022/08/07 01:58:27;;;;;;;5.00;1.10;;;;;;;13.28;66.18;101194.66;106481;1268;22772;-73
2022/08/07 02:01:02;;;;;;;6.90;0.60;;;;;;;13.21;66.20;101198.11;106408;1268;22541;-73
2022/08/07 02:03:37;;;;;;;7.70;0.90;;;;;;;13.14;66.37;101197.98;106645;1268;25466;-72
2022/08/07 02:06:12;;;;;;;6.40;0.60;;;;;;;13.09;66.62;101198.55;106496;1268;25357;-73
2022/08/07 02:08:46;;;;;;;6.00;0.70;;;;;;;13.04;66.87;101201.66;106525;1268;25562;-73
2022/08/07 02:11:17;;;;;;;2.30;0.70;;;;;;;12.96;66.84;101199.84;106581;1267;23067;-73
2022/08/07 02:13:50;;;;;;;4.90;1.00;;;;;;;12.87;67.11;101201.95;106476;1268;25243;-73
2022/08/07 02:16:24;;;;;;;3.20;0.60;;;;;;;12.79;67.19;101204.83;106588;1268;24270;-73
2022/08/07 02:18:56;;;;;;;5.30;0.70;;;;;;;12.69;67.40;101201.38;106558;1267;22542;-73
2022/08/07 02:21:28;;;;;;;3.70;0.70;;;;;;;12.61;67.37;101197.65;106449;1268;22528;-73
2022/08/07 02:24:00;;;;;;;7.30;0.70;;;;;;;12.53;67.50;101201.48;106453;1268;24118;-73
2022/08/07 02:26:32;;;;;;;4.70;0.70;;;;;;;12.46;67.52;101202.20;106572;1268;26510;-72
2022/08/07 02:29:06;;;;;;;5.10;0.60;;;;;;;12.38;67.87;101206.54;106448;1268;25249;-73
2022/08/07 02:31:39;;;;;;;2.20;0.50;;;;;;;12.33;67.93;101205.20;106529;1267;25493;-73
2022/08/07 02:34:11;;;;;;;5.10;0.90;;;;;;;12.29;68.05;101201.23;106508;1268;22942;-72
2022/08/07 02:36:44;;;;;;;5.20;0.80;;;;;;;12.23;68.21;101197.71;106582;1268;22531;-73
2022/08/07 02:39:19;;;;;;;3.80;0.60;;;;;;;12.16;68.30;101197.54;106647;1267;25587;-72
2022/08/07 02:41:51;;;;;;;4.10;0.60;;;;;;;12.10;68.48;101194.84;106588;1268;22467;-72
2022/08/07 02:44:27;;;;;;;4.50;0.90;;;;;;;12.03;68.50;101192.77;106469;1268;23038;-72
2022/08/07 02:47:02;;;;;;;3.30;0.50;;;;;;;11.97;68.66;101200.13;106483;1268;24370;-72
2022/08/07 02:49:33;;;;;;;3.30;0.70;;;;;;;11.93;68.82;101197.42;106508;1268;22525;-72
2022/08/07 02:52:09;;;;;;;3.50;0.60;;;;;;;11.89;69.05;101196.15;106538;1268;22524;-71
2022/08/07 02:54:43;;;;;;;2.30;0.60;;;;;;;11.85;69.12;101195.22;106498;1268;22525;-72
2022/08/07 02:57:17;;;;;;;5.40;0.80;;;;;;;11.81;69.25;101194.65;106550;1268;22887;-72
2022/08/07 02:59:50;;;;;;;5.20;1.00;;;;;;;11.78;69.47;101196.33;106601;1268;22629;-72
2022/08/07 03:02:22;;;;;;;3.60;0.50;;;;;;;11.73;69.58;101195.10;106651;1268;24219;-72
2022/08/07 03:04:56;;;;;;;3.00;0.70;;;;;;;11.68;69.67;101198.33;106439;1268;25500;-73
2022/08/07 03:07:29;;;;;;;6.20;0.70;;;;;;;11.63;69.85;101196.67;106688;1268;22645;-72
2022/08/07 03:10:01;;;;;;;2.30;0.80;;;;;;;11.59;70.09;101199.34;106503;1267;22548;-72
2022/08/07 03:12:37;;;;;;;3.30;0.70;;;;;;;11.55;69.96;101194.33;106484;1268;25308;-73
2022/08/07 03:15:10;;;;;;;3.10;0.60;;;;;;;11.50;70.08;101192.30;106555;1268;22552;-72
2022/08/07 03:17:43;;;;;;;5.80;0.80;;;;;;;11.45;70.22;101189.93;106465;1268;24199;-72
2022/08/07 03:20:16;;;;;;;4.10;0.90;;;;;;;11.42;70.69;101188.40;106493;1268;22547;-71
2022/08/07 03:22:51;;;;;;;4.40;0.70;;;;;;;11.34;71.07;101186.39;106400;1269;25592;-71
2022/08/07 03:25:25;;;;;;;4.90;0.70;;;;;;;11.29;71.30;101183.80;106531;1266;25526;-71
2022/08/07 03:27:57;;;;;;;6.60;0.70;;;;;;;11.27;71.52;101182.76;106430;1267;25301;-72
2022/08/07 03:30:30;;;;;;;1.70;0.50;;;;;;;11.24;71.35;101181.64;106484;1267;22542;-71
2022/08/07 03:33:03;;;;;;;4.50;0.80;;;;;;;11.19;71.54;101178.13;106571;1267;24310;-71
2022/08/07 03:35:36;;;;;;;7.20;0.90;;;;;;;11.14;71.69;101182.19;106524;1267;22527;-71
2022/08/07 03:38:10;;;;;;;4.20;0.80;;;;;;;11.13;71.77;101184.45;106531;1267;23915;-69
2022/08/07 03:40:42;;;;;;;6.50;1.00;;;;;;;11.12;71.75;101183.14;106557;1267;22585;-71
2022/08/07 03:43:14;;;;;;;5.30;0.90;;;;;;;11.12;71.93;101183.80;106429;1267;25251;-72
2022/08/07 03:45:46;;;;;;;4.00;0.80;;;;;;;11.09;72.15;101187.55;106484;1267;22573;-72
2022/08/07 03:48:18;;;;;;;3.90;0.90;;;;;;;11.07;72.20;101190.45;106521;1267;24192;-71
2022/08/07 03:50:52;;;;;;;3.00;0.80;;;;;;;11.04;72.32;101195.66;106515;1268;23113;-71
2022/08/07 03:53:23;;;;;;;4.40;0.70;;;;;;;11.02;72.55;101197.04;106593;1267;22598;-72
2022/08/07 03:55:55;;;;;;;4.30;0.80;;;;;;;11.01;72.59;101198.83;107362;1257;22536;-80
2022/08/07 03:58:28;;;;;;;5.10;0.80;;;;;;;10.99;72.65;101199.05;107237;1267;22531;-78
2022/08/07 04:01:00;;;;;;;11.40;1.50;;;;;;;10.98;72.86;101200.71;107282;1268;22466;-77
2022/08/07 04:03:33;;;;;;;4.50;0.70;;;;;;;10.96;73.02;101201.89;107162;1268;22530;-78
2022/08/07 04:06:07;;;;;;;2.50;0.70;;;;;;;10.96;73.19;101202.36;107154;1268;22575;-77
2022/08/07 04:08:41;;;;;;;4.20;0.90;;;;;;;10.95;73.25;101205.52;107442;1268;23783;-78
2022/08/07 04:11:12;;;;;;;4.70;0.70;;;;;;;10.94;73.31;101203.00;107594;1268;25371;-78
2022/08/07 04:13:45;;;;;;;3.00;0.70;;;;;;;10.94;73.48;101205.79;107446;1268;22666;-78
2022/08/07 04:16:16;;;;;;;3.00;0.60;;;;;;;10.94;73.72;101207.63;107515;1268;25523;-77
2022/08/07 04:18:48;;;;;;;3.00;0.90;;;;;;;10.96;73.80;101208.92;107151;1267;22528;-78
2022/08/07 04:21:19;;;;;;;5.20;1.10;;;;;;;10.98;73.94;101209.81;107372;1268;24341;-78
2022/08/07 04:23:51;;;;;;;4.90;0.70;;;;;;;11.01;74.03;101207.60;107282;1268;22595;-77
2022/08/07 04:26:22;;;;;;;3.90;0.90;;;;;;;11.05;74.18;101203.80;107114;1268;22535;-78
2022/08/07 04:28:54;;;;;;;4.20;0.70;;;;;;;11.09;74.39;101208.72;107156;1268;25370;-77
2022/08/07 04:31:27;;;;;;;3.90;0.70;;;;;;;11.15;74.39;101208.05;107155;1267;22560;-79
2022/08/07 04:34:00;;;;;;;5.20;1.20;;;;;;;11.22;74.40;101210.57;107205;1267;22569;-77
2022/08/07 04:36:34;;;;;;;2.80;0.80;;;;;;;11.30;74.71;101206.84;107209;1267;24259;-78
2022/08/07 04:39:07;;;;;;;2.20;0.70;;;;;;;11.36;74.81;101208.73;107139;1267;23554;-78
2022/08/07 04:41:38;;;;;;;2.00;0.60;;;;;;;11.43;74.81;101207.50;106975;1268;24285;-77
2022/08/07 04:44:11;;;;;;;4.80;0.80;;;;;;;11.50;74.69;101206.02;106924;1268;26479;-77
2022/08/07 04:46:45;;;;;;;7.30;0.90;;;;;;;11.58;75.00;101205.92;107258;1268;22729;-78
2022/08/07 04:49:23;;;;;;;7.20;1.00;;;;;;;11.66;75.18;101207.66;107524;1268;22542;-78
2022/08/07 04:52:02;;;;;;;3.20;0.70;;;;;;;11.74;74.98;101212.79;107486;1268;22568;-78
2022/08/07 04:54:40;;;;;;;4.80;1.20;;;;;;;11.83;75.61;101212.10;107513;1268;24211;-77
2022/08/07 04:57:20;;;;;;;4.60;0.90;;;;;;;11.91;75.83;101211.50;107517;1268;22524;-78
2022/08/07 04:59:59;;;;;;;3.00;0.70;;;;;;;12.00;75.87;101214.56;107399;1268;25328;-78
2022/08/07 05:02:35;;;;;;;4.60;0.80;;;;;;;12.09;75.85;101220.08;107054;1268;22528;-78
2022/08/07 05:05:17;;;;;;;5.00;1.00;;;;;;;12.18;76.02;101219.52;107319;1268;24316;-78
2022/08/07 05:07:57;;;;;;;4.80;1.00;;;;;;;12.30;76.38;101223.96;107585;1268;22540;-78
2022/08/07 05:10:35;;;;;;;7.10;1.00;;;;;;;12.41;76.39;101225.61;107536;1267;22931;-78
2022/08/07 05:13:15;;;;;;;10.90;1.00;;;;;;;12.51;76.13;101230.61;107510;1268;25545;-78
2022/08/07 05:15:50;;;;;;;5.50;1.00;;;;;;;12.62;76.26;101232.33;107414;1267;22549;-78
2022/08/07 05:18:27;;;;;;;6.30;0.80;;;;;;;12.74;76.18;101235.70;107677;1268;23329;-78
2022/08/07 05:21:03;;;;;;;9.50;0.70;;;;;;;12.84;75.87;101238.30;107828;1267;25242;-78
2022/08/07 05:23:39;;;;;;;2.20;0.80;;;;;;;12.94;75.41;101239.26;107609;1265;22764;-78
2022/08/07 05:26:14;;;;;;;4.40;0.70;;;;;;;13.05;75.54;101234.77;107583;1267;22553;-79
2022/08/07 05:28:48;;;;;;;3.90;0.80;;;;;;;13.18;74.74;101230.86;107514;1267;22571;-78
2022/08/07 05:31:22;;;;;;;4.10;0.80;;;;;;;13.32;74.90;101230.35;107451;1267;22546;-78
2022/08/07 05:33:54;;;;;;;5.70;1.10;;;;;;;13.46;74.58;101219.96;107617;1267;22551;-78
2022/08/07 05:36:27;;;;;;;8.10;1.60;;;;;;;13.58;74.39;101220.27;107559;1265;25375;-78
2022/08/07 05:39:00;;;;;;;4.60;1.10;;;;;;;13.70;74.09;101222.34;107548;1267;22550;-78
2022/08/07 05:41:32;;;;;;;4.50;1.00;;;;;;;13.84;73.86;101226.81;107489;1267;22742;-78
2022/08/07 05:44:04;;;;;;;9.50;0.70;;;;;;;13.99;74.14;101236.88;107419;1267;24229;-79
2022/08/07 05:46:37;;;;;;;4.70;0.90;;;;;;;14.12;73.57;101235.52;107743;1265;25535;-79
2022/08/07 05:49:10;;;;;;;5.20;0.70;;;;;;;14.27;73.94;101232.27;107542;1267;23508;-78
2022/08/07 05:51:41;;;;;;;7.60;0.50;;;;;;;14.42;73.45;101234.83;107448;1267;22609;-78
2022/08/07 05:54:13;;;;;;;4.00;1.10;;;;;;;14.55;73.19;101235.48;107444;1265;24262;-79
2022/08/07 05:56:47;;;;;;;11.50;3.60;;;;;;;14.70;73.38;101232.27;107440;1265;23531;-78
2022/08/07 05:59:21;;;;;;;9.00;1.80;;;;;;;14.85;73.36;101240.10;107480;1265;22477;-78
2022/08/07 06:01:54;;;;;;;4.80;1.00;;;;;;;15.02;73.30;101247.41;107389;1267;22576;-79
2022/08/07 06:04:26;;;;;;;3.80;0.80;;;;;;;15.17;72.44;101249.05;107491;1267;22682;-78
2022/08/07 06:06:58;;;;;;;4.00;1.10;;;;;;;15.33;72.71;101245.27;107559;1267;23074;-79
2022/08/07 06:09:29;;;;;;;3.90;0.80;;;;;;;15.48;72.67;101246.63;107559;1267;22590;-78
2022/08/07 06:12:02;;;;;;;5.90;0.60;;;;;;;15.60;71.98;101246.56;107438;1267;22950;-78
2022/08/07 06:14:34;;;;;;;5.30;0.50;;;;;;;15.68;71.87;101245.80;107417;1267;22467;-78
2022/08/07 06:17:07;;;;;;;7.00;0.60;;;;;;;15.76;71.20;101248.63;107399;1265;22544;-79
2022/08/07 06:19:40;;;;;;;3.60;0.50;;;;;;;15.82;71.80;101247.30;107332;1267;25420;-78
2022/08/07 06:22:11;;;;;;;5.10;0.60;;;;;;;15.96;71.43;101247.52;107507;1266;22544;-78
2022/08/07 06:24:43;;;;;;;4.80;0.60;;;;;;;16.06;71.16;101247.86;107534;1267;22634;-78
2022/08/07 06:27:23;;;;;;;4.50;0.60;;;;;;;16.15;71.05;101252.08;107447;1266;22539;-78
2022/08/07 06:29:53;;;;;;;;;;;;;;;16.28;70.76;101249.66;107539;1267;22503;-78
2022/08/07 06:32:24;;;;;;;4.80;0.70;;;;;;;16.40;71.08;101252.63;107575;1267;22561;-79
2022/08/07 06:34:55;;;;;;;3.90;0.50;;;;;;;16.52;70.64;101258.73;107420;1267;22596;-78
2022/08/07 06:37:26;;;;;;;8.80;0.70;;;;;;;16.60;70.18;101260.56;107406;1267;23813;-78
2022/08/07 06:39:58;;;;;;;5.40;0.60;;;;;;;16.66;69.75;101259.23;107444;1267;22688;-78
2022/08/07 06:42:36;;;;;;;2.60;0.50;;;;;;;16.74;70.07;101257.67;107455;1267;22554;-79
2022/08/07 06:45:10;;;;;;;8.50;0.70;;;;;;;16.81;69.89;101259.60;107486;1267;25289;-78
2022/08/07 06:47:42;;;;;;;4.20;0.70;;;;;;;16.85;69.57;101259.55;107733;1267;22546;-78
2022/08/07 06:50:14;;;;;;;1.50;0.50;;;;;;;16.91;69.58;101261.80;107476;1267;22554;-78
2022/08/07 06:52:51;;;;;;;5.10;0.50;;;;;;;16.98;69.12;101262.52;107512;1267;22541;-80
2022/08/07 06:55:27;;;;;;;2.50;0.50;;;;;;;17.03;68.59;101264.23;107337;1267;22582;-78
2022/08/07 06:58:01;;;;;;;4.70;0.60;;;;;;;17.07;68.80;101261.39;107439;1267;26612;-78
2022/08/07 07:00:37;;;;;;;6.30;0.80;;;;;;;17.14;68.84;101265.45;107619;1267;22532;-78
2022/08/07 07:03:09;;;;;;;5.20;0.50;;;;;;;17.22;68.50;101264.13;107384;1265;22677;-79
2022/08/07 07:05:41;;;;;;;5.40;0.60;;;;;;;17.29;67.83;101264.34;107399;1267;26606;-78
2022/08/07 07:08:13;;;;;;;3.80;0.50;;;;;;;17.36;67.57;101265.12;107434;1267;22777;-78
2022/08/07 07:10:45;;;;;;;1.30;0.30;;;;;;;17.42;67.44;101261.72;107412;1267;24197;-78
2022/08/07 07:13:19;;;;;;;5.00;0.40;;;;;;;17.47;67.06;101260.46;107389;1267;24219;-78
2022/08/07 07:15:59;;;;;;;2.50;0.50;;;;;;;17.52;67.15;101262.44;107389;1267;22528;-78
2022/08/07 07:18:36;;;;;;;8.70;0.50;;;;;;;17.60;67.22;101256.48;107525;1267;23367;-78
2022/08/07 07:21:12;;;;;;;3.00;0.60;;;;;;;17.69;66.41;101253.35;107431;1267;22624;-78
2022/08/07 07:23:45;;;;;;;4.30;0.70;;;;;;;17.78;66.45;101253.92;107553;1267;22531;-78
2022/08/07 07:26:20;;;;;;;4.60;0.50;;;;;;;17.89;66.25;101250.23;107521;1265;22538;-79
2022/08/07 07:28:56;;;;;;;4.60;0.30;;;;;;;17.99;65.54;101247.36;107414;1267;23917;-79
2022/08/07 07:31:38;;;;;;;7.60;0.50;;;;;;;18.04;65.19;101245.83;107484;1267;24285;-79
2022/08/07 07:34:12;;;;;;;6.90;0.40;;;;;;;18.08;64.78;101245.51;107478;1267;25742;-78
2022/08/07 07:36:46;;;;;;;5.20;0.50;;;;;;;18.14;65.03;101242.54;107646;1267;24185;-78
2022/08/07 07:39:19;;;;;;;3.10;0.40;;;;;;;18.23;64.87;101242.95;107407;1266;22541;-78
2022/08/07 07:41:54;;;;;;;3.90;0.50;;;;;;;18.32;63.81;101241.43;108327;1267;22605;-78
2022/08/07 07:44:27;;;;;;;3.00;0.50;;;;;;;18.38;63.92;101237.11;108168;1267;22470;-78
2022/08/07 07:47:02;;;;;;;3.40;0.40;;;;;;;18.42;63.82;101237.51;107334;1265;22558;-78
2022/08/07 07:49:35;;;;;;;4.40;0.40;;;;;;;18.48;63.39;101237.60;107457;1267;24341;-78
2022/08/07 07:52:08;;;;;;;2.60;0.40;;;;;;;18.52;62.67;101241.56;107427;1267;24038;-78
2022/08/07 07:54:39;;;;;;;6.50;0.40;;;;;;;18.56;61.57;101246.31;107415;1267;25333;-78
2022/08/07 07:57:12;;;;;;;2.60;0.30;;;;;;;18.58;60.77;101244.30;107396;1266;22861;-78
2022/08/07 07:59:45;;;;;;;1.80;0.30;;;;;;;18.62;61.24;101239.79;107678;1267;22665;-79
2022/08/07 08:02:18;;;;;;;4.10;0.80;;;;;;;18.67;61.29;101234.91;107397;1267;23998;-78
2022/08/07 08:04:51;;;;;;;2.80;0.30;;;;;;;18.76;60.91;101241.77;107408;1267;22565;-79
2022/08/07 08:07:23;;;;;;;3.50;0.40;;;;;;;18.82;60.24;101240.09;107486;1267;22483;-78
2022/08/07 08:09:55;;;;;;;4.50;0.30;;;;;;;18.84;59.63;101240.85;107461;1267;25324;-78
2022/08/07 08:12:28;;;;;;;3.90;0.40;;;;;;;18.88;59.23;101240.14;107438;1267;24758;-79
2022/08/07 08:15:00;;;;;;;2.40;0.40;;;;;;;18.91;59.02;101236.69;107432;1267;23086;-79
2022/08/07 08:17:36;;;;;;;3.60;0.20;;;;;;;18.96;57.05;101236.70;107401;1267;22606;-78
2022/08/07 08:20:10;;;;;;;5.60;0.30;;;;;;;19.00;56.14;101235.11;107422;1267;22549;-78
2022/08/07 08:28:25;;;;;;;2.40;0.30;;;;;;;19.15;56.12;101236.04;107384;1267;24815;-78
2022/08/07 08:31:00;;;;;;;1.70;0.20;;;;;;;19.18;55.80;101239.27;107552;1267;24198;-78
2022/08/07 08:33:34;;;;;;;3.40;0.40;;;;;;;19.23;55.61;101239.84;107543;1267;22519;-80
2022/08/07 08:36:07;;;;;;;2.60;0.40;;;;;;;19.26;55.62;101239.42;107404;1267;25255;-78
2022/08/07 08:38:42;;;;;;;1.30;0.30;;;;;;;19.26;54.31;101244.06;107467;1267;25602;-78
2022/08/07 08:41:20;;;;;;;0.80;0.20;;;;;;;19.20;53.51;101241.50;107409;1265;22609;-78
2022/08/07 08:44:00;;;;;;;2.80;0.30;;;;;;;19.21;53.30;101236.91;107260;1267;24211;-78
2022/08/07 08:46:39;;;;;;;3.90;0.40;;;;;;;19.26;53.37;101236.60;107216;1267;22553;-77
2022/08/07 08:49:18;;;;;;;2.10;0.30;;;;;;;19.30;53.29;101243.45;107325;1267;24235;-79
2022/08/07 08:51:57;;;;;;;2.70;0.30;;;;;;;19.36;52.18;101237.90;107236;1267;23912;-79
2022/08/07 08:54:35;;;;;;;1.90;0.20;;;;;;;19.40;51.21;101229.05;107446;1267;25490;-77
2022/08/07 08:57:13;;;;;;;2.60;0.30;;;;;;;19.45;50.99;101236.35;107260;1267;22545;-77
2022/08/07 08:59:59;;;;;;;0.90;0.20;;;;;;;19.56;49.88;101235.86;107273;1267;22604;-77
2022/08/07 09:02:40;;;;;;;0.50;0.10;;;;;;;19.64;50.34;101240.14;107314;1266;24333;-78
2022/08/07 09:05:41;;;;;;;2.20;0.20;;;;;;;19.67;49.01;101244.70;107332;1267;22662;-78
2022/08/07 09:08:26;;;;;;;2.40;0.20;;;;;;;19.70;48.82;101238.98;107271;1265;22648;-77
2022/08/07 09:11:10;;;;;;;1.90;0.20;;;;;;;19.72;48.52;101233.83;107304;1267;25873;-78
2022/08/07 09:13:48;;;;;;;2.40;0.30;;;;;;;19.77;48.33;101232.27;107299;1267;26533;-77
2022/08/07 09:16:29;;;;;;;1.60;0.20;;;;;;;19.82;48.51;101232.20;107128;1267;23086;-78
2022/08/07 09:19:20;;;;;;;3.80;0.30;;;;;;;19.85;48.05;101232.34;107402;1267;22556;-78
2022/08/07 09:21:58;;;;;;;2.80;0.40;;;;;;;19.87;47.69;101230.17;107406;1267;24234;-78
2022/08/07 09:24:38;;;;;;;3.30;0.30;;;;;;;19.89;47.27;101226.88;107316;1267;22547;-78
2022/08/07 09:27:24;;;;;;;2.20;0.40;;;;;;;19.93;46.91;101224.29;107193;1267;25292;-78
2022/08/07 09:30:03;;;;;;;3.00;0.40;;;;;;;19.97;46.39;101223.09;107542;1267;25312;-78
2022/08/07 09:32:57;;;;;;;2.10;0.30;;;;;;;20.06;46.15;101220.89;107520;1267;26528;-78
2022/08/07 09:35:46;;;;;;;3.40;0.40;;;;;;;20.12;45.41;101213.23;107436;1266;24201;-78
2022/08/07 09:38:29;;;;;;;1.60;0.20;;;;;;;20.09;45.48;101211.55;107432;1267;24825;-78
2022/08/07 09:41:06;;;;;;;4.30;0.20;;;;;;;20.13;44.95;101213.48;107372;1265;22537;-78
2022/08/07 09:43:53;;;;;;;2.50;0.20;;;;;;;20.11;44.62;101212.15;107373;1267;25521;-78
2022/08/07 09:46:36;;;;;;;2.60;0.30;;;;;;;20.09;45.05;101210.81;107473;1267;26410;-78
2022/08/07 09:49:22;;;;;;;2.00;0.40;;;;;;;20.11;44.45;101208.20;107455;1267;23376;-78
2022/08/07 09:52:06;;;;;;;1.90;0.20;;;;;;;20.12;44.22;101203.08;107426;1267;22572;-78
2022/08/07 09:54:45;;;;;;;1.00;0.20;;;;;;;20.18;44.03;101198.58;107480;1267;22555;-78
2022/08/07 09:57:57;;;;;;;3.70;0.40;;;;;;;20.24;43.68;101196.70;107423;1267;22560;-78
2022/08/07 10:00:40;;;;;;;3.10;0.30;;;;;;;20.33;43.79;101186.45;107461;1266;22543;-79
2022/08/07 10:03:58;;;;;;;5.10;0.30;;;;;;;20.39;44.12;101193.52;107441;1266;25408;-80
2022/08/07 10:06:37;;;;;;;;;;;;;;;20.49;43.79;101192.33;103406;1267;22713;-79
2022/08/07 10:09:23;;;;;;;2.60;0.40;;;;;;;20.48;43.73;101193.00;107487;1267;24268;-80
2022/08/07 10:12:11;;;;;;;3.10;0.30;;;;;;;20.46;43.73;101191.02;107391;1267;22746;-80
2022/08/07 10:15:11;;;;;;;1.10;0.20;;;;;;;20.42;42.25;101187.36;107431;1267;25663;-79
2022/08/07 10:18:08;;;;;;;1.20;0.30;;;;;;;20.41;43.37;101186.56;107465;1267;25334;-79
2022/08/07 10:20:55;;;;;;;5.50;0.40;;;;;;;20.48;43.32;101190.43;107682;1267;24302;-79
2022/08/07 10:23:50;;;;;;;4.40;0.30;;;;;;;20.52;42.84;101184.37;107680;1267;24341;-79
2022/08/07 10:26:37;;;;;;;1.80;0.40;;;;;;;20.50;42.22;101175.56;107457;1265;22693;-80
2022/08/07 10:29:27;;;;;;;1.90;0.40;;;;;;;20.51;42.22;101167.14;107426;1267;24255;-79
2022/08/07 10:32:25;;;;;;;1.40;0.30;;;;;;;20.55;42.10;101170.21;107438;1266;22634;-80
2022/08/07 10:35:12;;;;;;;1.60;0.20;;;;;;;20.55;42.09;101164.54;107381;1266;22682;-80
2022/08/07 10:38:04;;;;;;;1.60;0.30;;;;;;;20.52;42.39;101163.64;107458;1267;25463;-80
2022/08/07 10:40:43;;;;;;;2.40;0.30;;;;;;;20.52;42.29;101160.64;107696;1267;25373;-80
2022/08/07 10:43:21;;;;;;;1.30;0.30;;;;;;;20.54;42.35;101153.00;107732;1266;22519;-80
2022/08/07 10:45:57;;;;;;;4.70;0.40;;;;;;;20.58;42.14;101152.91;107446;1267;23153;-79
2022/08/07 10:48:43;;;;;;;2.00;0.40;;;;;;;20.63;41.54;101149.98;107431;1266;22573;-79
2022/08/07 10:51:22;;;;;;;1.60;0.20;;;;;;;20.67;41.30;101146.91;107573;1266;23052;-79
2022/08/07 10:54:13;;;;;;;5.50;0.40;;;;;;;20.71;41.49;101143.27;107476;1265;22522;-80
2022/08/07 10:57:03;;;;;;;3.40;0.50;;;;;;;20.76;40.70;101139.30;107516;1267;25487;-79
2022/08/07 10:59:53;;;;;;;2.40;0.30;;;;;;;20.84;41.17;101137.95;107771;1267;24352;-80
2022/08/07 11:02:32;;;;;;;1.80;0.40;;;;;;;20.89;40.76;101138.72;107792;1267;24162;-80
2022/08/07 11:05:18;;;;;;;2.10;0.30;;;;;;;20.92;40.48;101130.02;107798;1267;22568;-79
2022/08/07 11:07:59;;;;;;;2.50;0.30;;;;;;;20.92;40.53;101137.15;107735;1266;22643;-80
2022/08/07 11:10:38;;;;;;;3.60;0.30;;;;;;;20.92;40.52;101135.30;107766;1267;24237;-80
2022/08/07 11:13:15;;;;;;;1.20;0.30;;;;;;;20.95;40.41;101134.43;107636;1267;22726;-80
2022/08/07 11:15:52;;;;;;;3.20;0.40;;;;;;;21.00;40.28;101126.15;107757;1267;23320;-80
2022/08/07 11:18:35;;;;;;;1.50;0.40;;;;;;;21.05;40.06;101126.98;107717;1265;25294;-80
2022/08/07 11:21:15;;;;;;;1.80;0.40;;;;;;;21.08;39.69;101120.20;107605;1265;24140;-80
2022/08/07 11:23:52;;;;;;;2.40;0.50;;;;;;;21.09;39.86;101125.35;107417;1267;22563;-80
2022/08/07 11:26:28;;;;;;;2.00;0.30;;;;;;;21.14;39.87;101124.64;107455;1267;25646;-80
2022/08/07 11:29:07;;;;;;;1.60;0.30;;;;;;;21.17;39.39;101120.68;107370;1267;23493;-80
2022/08/07 11:31:46;;;;;;;1.20;0.30;;;;;;;21.17;39.39;101117.85;107415;1267;24201;-79
2022/08/07 11:34:19;;;;;;;;;;;;;;;21.21;39.80;101116.47;107420;1267;22512;-80
2022/08/07 11:36:58;;;;;;;1.80;0.20;;;;;;;21.21;39.18;101118.67;107377;1267;25525;-79
2022/08/07 11:39:51;;;;;;;1.00;0.30;;;;;;;21.20;38.98;101111.52;107575;1266;23233;-80
2022/08/07 11:42:34;;;;;;;3.20;0.20;;;;;;;21.20;39.47;101107.28;107560;1265;22541;-80
2022/08/07 11:45:21;;;;;;;1.90;0.40;;;;;;;21.26;39.44;101104.20;107439;1265;26667;-80
2022/08/07 11:48:11;;;;;;;2.40;0.30;;;;;;;21.29;38.97;101102.37;107242;1267;22557;-80
2022/08/07 11:51:01;;;;;;;2.20;0.30;;;;;;;21.30;39.37;101100.20;107556;1267;22625;-79
2022/08/07 11:53:47;;;;;;;2.90;0.20;;;;;;;21.33;39.08;101095.77;107368;1267;22756;-80
2022/08/07 11:56:34;;;;;;;1.50;0.30;;;;;;;21.36;39.28;101099.14;107382;1267;22597;-80
2022/08/07 11:59:28;;;;;;;1.40;0.30;;;;;;;21.37;38.92;101094.27;107324;1267;24342;-78
2022/08/07 12:02:12;;;;;;;1.60;0.20;;;;;;;21.35;39.07;101091.16;107295;1267;24388;-79
2022/08/07 12:05:02;;;;;;;1.90;0.30;;;;;;;21.35;38.76;101085.62;107227;1267;22527;-79